JQ1YUX-13 Tokyo Ota-ku JP current weather conditions

sailwx.info

Wind from 205 at 0 knots gusting 5

Air temperature 30.0° C
Dewpoint 23.2° C

Last reported at 2014-Jul-29 01:50 UTC.
Time now 2014-Jul-29 02:33 UTC

Location: N 35°35' E 139°40'.
View on Google Maps.

See reports from other nearby stations

  
Tides and Currents Weather Stations Pressure Air Temp Water Temp Dewpoint Dewpoint Depression Visibility Wind Speed Wind Dir Waves Ship Positions
date/time (UTC)wind fromknots sea level pressurealtimeterstation pressurevisibilityair tempwater tempwave heightnotes
2014-Jul-29 01:50 205 0 gusting 5 30.0
2014-Jul-29 01:21 207 30.0
2014-Jul-29 01:20 184 0 gusting 4 30.0
2014-Jul-29 00:51 187 29.4
2014-Jul-29 00:50 180 29.4
2014-Jul-29 00:21 225 0 gusting 1 28.9
2014-Jul-29 00:20 227 1 gusting 3 28.9
2014-Jul-28 23:51 203 28.3
2014-Jul-28 23:50 203 28.3
2014-Jul-28 23:21 203 27.2
2014-Jul-28 23:20 203 27.2
2014-Jul-28 22:51 203 26.1
2014-Jul-28 22:50 203 26.1
2014-Jul-28 22:21 202 25.0
2014-Jul-28 22:20 203 25.0
2014-Jul-28 21:51 203 24.4
2014-Jul-28 21:50 203 24.4
2014-Jul-28 21:21 203 23.9
2014-Jul-28 21:20 203 23.3
2014-Jul-28 20:51 203 23.3
2014-Jul-28 20:50 203 23.3
2014-Jul-28 20:21 203 23.3
2014-Jul-28 20:20 203 23.3
2014-Jul-28 19:51 203 23.3
2014-Jul-28 19:50 202 23.3
2014-Jul-28 19:21 202 23.3
2014-Jul-28 19:20 202 23.3
2014-Jul-28 18:51 203 23.9
2014-Jul-28 18:50 203 23.9
2014-Jul-28 18:21 203 23.9
2014-Jul-28 18:20 203 23.9
2014-Jul-28 17:51 203 24.4
2014-Jul-28 17:50 203 24.4
2014-Jul-28 17:21 203 24.4
2014-Jul-28 17:20 203 24.4
2014-Jul-28 16:51 202 24.4
2014-Jul-28 16:50 203 24.4
2014-Jul-28 16:21 202 24.4
2014-Jul-28 16:20 203 24.4
2014-Jul-28 15:51 202 24.4
2014-Jul-28 15:50 203 24.4
2014-Jul-28 15:21 202 25.0
2014-Jul-28 15:20 202 25.0
2014-Jul-28 14:51 205 25.0
2014-Jul-28 14:50 205 25.0
2014-Jul-28 14:21 193 25.0
2014-Jul-28 14:20 193 25.0
2014-Jul-28 13:51 171 25.6
2014-Jul-28 13:50 171 25.6
2014-Jul-28 13:21 198 0 gusting 5 25.6
2014-Jul-28 13:20 198 0 gusting 6 25.6
2014-Jul-28 12:51 185 25.6
2014-Jul-28 12:50 186 25.6
2014-Jul-28 12:21 196 1 gusting 4 26.1
2014-Jul-28 12:20 164 0 gusting 5 26.1
2014-Jul-28 11:51 202 26.1
2014-Jul-28 11:50 204 26.1
2014-Jul-28 11:21 178 26.1
2014-Jul-28 11:20 176 26.1
2014-Jul-28 10:51 175 26.7
2014-Jul-28 10:50 172 26.7
2014-Jul-28 10:21 173 26.7
2014-Jul-28 10:20 188 26.7
2014-Jul-28 09:51 167 1 gusting 5 27.2
2014-Jul-28 09:50 205 0 gusting 5 27.2
2014-Jul-28 09:21 152 2 gusting 4 27.8
2014-Jul-28 09:20 148 1 gusting 8 27.8
2014-Jul-28 08:51 179 1 gusting 5 27.8
2014-Jul-28 08:50 180 0 gusting 5 27.8
2014-Jul-28 08:21 190 1 gusting 6 28.3
2014-Jul-28 08:20 196 0 gusting 6 28.3
2014-Jul-28 07:51 205 2 gusting 8 28.9
2014-Jul-28 07:50 200 3 gusting 4 28.9
2014-Jul-28 07:21 132 3 gusting 7 28.3
2014-Jul-28 07:20 138 2 gusting 6 28.3
2014-Jul-28 06:51 173 2 gusting 6 28.9
2014-Jul-28 06:50 180 3 gusting 6 28.9
2014-Jul-28 06:21 350 30.6
2014-Jul-28 06:20 183 30.6
2014-Jul-28 05:51 183 30.6
2014-Jul-28 05:50 183 30.6
2014-Jul-28 05:21 180 29.4
2014-Jul-28 05:20 206 29.4
2014-Jul-28 04:51 205 30.0
2014-Jul-28 04:50 205 30.0
2014-Jul-28 04:21 188 30.6
2014-Jul-28 04:20 186 30.6
2014-Jul-28 03:51 261 30.6
2014-Jul-28 03:50 261 1 gusting 0 30.6
2014-Jul-28 03:21 206 30.6
2014-Jul-28 03:20 195 30.6
2014-Jul-28 02:51 205 30.0
2014-Jul-28 02:50 205 30.0
2014-Jul-28 02:21 018 0 gusting 4 31.1
2014-Jul-28 02:20 019 0 gusting 5 31.1
2014-Jul-28 01:51 030 0 gusting 5 30.6
2014-Jul-28 01:50 051 30.6
2014-Jul-28 01:21 229 28.9
2014-Jul-28 01:20 229 28.9
2014-Jul-28 00:51 029 30.0
2014-Jul-28 00:50 045 30.0
2014-Jul-28 00:21 207 0 gusting 5 28.9
2014-Jul-28 00:20 205 28.9
2014-Jul-27 23:51 332 28.3
2014-Jul-27 23:50 233 28.3
2014-Jul-27 23:21 221 28.3
2014-Jul-27 23:20 219 28.3
2014-Jul-27 22:51 182 27.2
2014-Jul-27 22:50 182 27.2
2014-Jul-27 22:21 318 26.1
2014-Jul-27 22:20 317 26.1
2014-Jul-27 21:51 25.6
2014-Jul-27 21:50 005 25.6
2014-Jul-27 21:21 306 25.0
2014-Jul-27 21:20 284 25.0
2014-Jul-27 20:51 032 25.0
2014-Jul-27 20:50 277 25.0
2014-Jul-27 20:21 029 25.0
2014-Jul-27 20:20 312 25.0
2014-Jul-27 19:51 312 25.6
2014-Jul-27 19:50 313 25.6
2014-Jul-27 19:21 315 26.1
2014-Jul-27 19:20 320 26.1
2014-Jul-27 18:51 25.6
2014-Jul-27 18:50 25.6
2014-Jul-27 18:21 048 26.1
2014-Jul-27 18:20 048 26.1
2014-Jul-27 17:51 077 26.1
2014-Jul-27 17:50 078 26.1
2014-Jul-27 17:21 038 26.7
2014-Jul-27 17:20 038 26.7
2014-Jul-27 16:51 041 27.2
2014-Jul-27 16:50 042 27.2
2014-Jul-27 16:21 042 27.2
2014-Jul-27 16:20 042 27.2
2014-Jul-27 15:51 042 27.8
2014-Jul-27 15:50 041 27.8
2014-Jul-27 15:21 042 28.3
2014-Jul-27 15:20 042 28.3
2014-Jul-27 14:51 042 28.9
2014-Jul-27 14:50 041 28.9
2014-Jul-27 14:21 014 28.9
2014-Jul-27 14:20 014 28.9
2014-Jul-27 13:51 009 0 gusting 6 28.9
2014-Jul-27 13:50 028 2 gusting 6 28.9
2014-Jul-27 13:21 048 0 gusting 6 29.4
2014-Jul-27 13:20 028 0 gusting 4 29.4
2014-Jul-27 12:51 009 1 gusting 5 29.4
2014-Jul-27 12:50 024 0 gusting 4 29.4
2014-Jul-27 12:21 010 28.9
2014-Jul-27 12:20 010 28.9
2014-Jul-27 11:51 010 28.9
2014-Jul-27 11:50 010 28.9
2014-Jul-27 11:21 038 28.9
2014-Jul-27 11:20 035 28.9
2014-Jul-27 10:51 350 28.9
2014-Jul-27 10:50 334 28.9
2014-Jul-27 10:21 355 28.9
2014-Jul-27 10:20 313 28.9
2014-Jul-27 09:51 280 28.3
2014-Jul-27 09:50 280 28.3
2014-Jul-27 09:21 290 28.9
2014-Jul-27 09:20 290 28.9
2014-Jul-27 08:51 286 28.9
2014-Jul-27 08:50 304 28.9
2014-Jul-27 08:21 294 1 gusting 4 27.8
2014-Jul-27 08:20 281 1 gusting 4 27.8
2014-Jul-27 07:51 287 1 gusting 3 28.9
2014-Jul-27 07:50 299 0 gusting 5 28.9
2014-Jul-27 07:21 277 28.9
2014-Jul-27 07:20 277 28.9
2014-Jul-27 06:51 015 2 gusting 5 28.3
2014-Jul-27 06:50 038 5 gusting 6 28.3
2014-Jul-27 06:21 327 7 gusting 12 30.6
2014-Jul-27 06:20 027 7 gusting 13 30.6
2014-Jul-27 05:51 33.9
2014-Jul-27 05:50 017 4 gusting 11 33.9
2014-Jul-27 05:21 213 1 gusting 5 34.4
2014-Jul-27 05:20 213 0 gusting 5 34.4
2014-Jul-27 04:51 132 4 gusting 10 33.9
2014-Jul-27 04:50 211 5 gusting 7 33.9
2014-Jul-27 04:21 133 6 gusting 11 33.3
2014-Jul-27 04:20 230 4 gusting 6 33.3
2014-Jul-27 03:51 194 1 gusting 2 33.3
2014-Jul-27 03:50 241 4 gusting 6 33.3
2014-Jul-27 03:21 142 3 gusting 6 33.3
2014-Jul-27 03:20 186 2 gusting 6 33.3
2014-Jul-27 02:51 201 4 gusting 7 32.8
2014-Jul-27 02:50 155 4 gusting 6 32.8
2014-Jul-27 02:21 214 2 gusting 6 32.8
2014-Jul-27 02:20 217 1 gusting 4 32.8